createdAt,value
2017-09-15T03:30:32.498Z,1.55
2017-09-15T03:33:00.845Z,1.48
2017-09-15T03:35:28.475Z,0.88
2017-09-15T03:37:56.058Z,1.20
2017-09-15T03:40:23.642Z,2.30
2017-09-15T03:42:51.261Z,0.90
2017-09-15T03:45:18.842Z,1.65
2017-09-15T03:47:46.422Z,1.50
2017-09-15T03:50:14.302Z,1.42
2017-09-15T03:52:42.682Z,1.92
2017-09-15T03:55:11.054Z,2.75
2017-09-15T03:57:39.429Z,1.10
2017-09-15T04:00:07.777Z,2.30
2017-09-15T04:02:35.474Z,1.48
2017-09-15T04:05:03.821Z,3.17
2017-09-15T04:07:31.510Z,5.37
2017-09-15T04:09:59.985Z,2.25
2017-09-15T04:12:28.361Z,1.83
2017-09-15T04:14:56.711Z,2.83
2017-09-15T04:17:24.313Z,1.52
2017-09-15T04:19:52.678Z,1.30
2017-09-15T04:22:21.025Z,3.40
2017-09-15T04:24:48.659Z,1.83
2017-09-15T04:27:16.242Z,3.50
2017-09-15T04:29:43.832Z,2.33
2017-09-15T04:32:12.201Z,2.65
2017-09-15T04:34:40.550Z,1.35
2017-09-15T04:37:08.137Z,4.50
2017-09-15T04:39:36.506Z,2.10
2017-09-15T04:42:04.086Z,2.67
2017-09-15T04:44:32.425Z,2.35
2017-09-15T04:47:00.054Z,2.97
2017-09-15T04:49:27.638Z,3.45
2017-09-15T04:51:55.238Z,1.30
2017-09-15T04:54:23.741Z,1.50
2017-09-15T04:56:51.378Z,2.85
2017-09-15T04:59:19.749Z,7.03
2017-09-15T05:01:48.123Z,1.00
2017-09-15T05:04:16.497Z,1.45
2017-09-15T05:06:44.878Z,1.60
2017-09-15T05:09:13.230Z,2.72
2017-09-15T05:11:41.022Z,1.20
2017-09-15T05:14:09.371Z,2.55
2017-09-15T05:16:37.060Z,2.20
2017-09-15T05:19:05.434Z,1.35
2017-09-15T05:21:33.779Z,1.23
2017-09-15T05:24:01.397Z,2.30
2017-09-15T05:26:28.973Z,1.23
2017-09-15T05:28:56.598Z,1.45
2017-09-15T05:31:25.124Z,2.17
2017-09-15T05:33:52.701Z,2.75
2017-09-15T05:36:20.277Z,2.85
2017-09-15T05:38:48.874Z,1.00
2017-09-15T05:41:17.298Z,3.22
2017-09-15T05:43:45.010Z,3.05
2017-09-15T05:46:13.382Z,4.10
2017-09-15T05:48:41.766Z,2.10
2017-09-15T05:51:10.175Z,1.00
2017-09-15T05:53:37.751Z,4.25
2017-09-15T05:56:05.370Z,2.10
2017-09-15T05:58:33.838Z,1.60
2017-09-15T06:01:02.221Z,2.35
2017-09-15T06:03:30.582Z,2.65
2017-09-15T06:05:58.213Z,2.03
2017-09-15T06:08:25.810Z,2.35
2017-09-15T06:10:54.154Z,1.52
2017-09-15T06:13:21.762Z,2.55
2017-09-15T06:15:49.349Z,3.78
2017-09-15T06:18:16.972Z,4.65
2017-09-15T06:20:44.574Z,5.03
2017-09-15T06:23:12.157Z,4.75
2017-09-15T06:25:39.917Z,4.25
2017-09-15T06:28:07.502Z,4.32
2017-09-15T06:30:35.881Z,4.53
2017-09-15T06:33:04.278Z,6.15
2017-09-15T06:35:31.921Z,3.58
2017-09-15T06:38:00.298Z,3.15
2017-09-15T06:40:28.882Z,5.78
2017-09-15T06:42:57.231Z,4.45
2017-09-15T06:45:24.814Z,2.87
2017-09-15T06:47:53.206Z,2.12
2017-09-15T06:50:20.782Z,3.15
2017-09-15T06:52:48.365Z,8.45
2017-09-15T06:55:16.180Z,5.75
2017-09-15T06:57:44.562Z,5.00
2017-09-15T07:00:12.939Z,5.75
2017-09-15T07:02:41.414Z,3.17
2017-09-15T07:05:09.762Z,3.58
2017-09-15T07:07:37.343Z,5.37
2017-09-15T07:10:06.847Z,7.97
2017-09-15T07:12:35.218Z,6.10
2017-09-15T07:15:03.572Z,4.93
2017-09-15T07:17:31.178Z,4.25
2017-09-15T07:19:58.822Z,3.35
2017-09-15T07:22:27.170Z,2.80
2017-09-15T07:24:54.774Z,7.22
2017-09-15T07:27:22.413Z,4.78
2017-09-15T07:29:50.766Z,2.15
2017-09-15T07:32:18.662Z,4.65
2017-09-15T07:34:47.010Z,4.35
2017-09-15T07:37:14.594Z,6.68
2017-09-15T07:39:42.991Z,4.45
2017-09-15T07:42:10.575Z,2.50
2017-09-15T07:44:38.191Z,2.80
2017-09-15T07:47:06.586Z,9.13
2017-09-15T07:49:34.223Z,8.77
2017-09-15T07:52:02.574Z,2.17
2017-09-15T07:54:30.173Z,3.10
2017-09-15T07:56:58.538Z,6.75
2017-09-15T07:59:26.944Z,6.22
2017-09-15T08:01:54.522Z,4.22
2017-09-15T08:04:22.144Z,3.65
2017-09-15T08:06:50.618Z,2.87
2017-09-15T08:09:18.208Z,7.55
2017-09-15T08:11:45.939Z,2.65
2017-09-15T08:14:14.291Z,4.45
2017-09-15T08:16:41.969Z,4.30
2017-09-15T08:19:10.349Z,2.58
2017-09-15T08:21:38.698Z,7.15
2017-09-15T08:24:06.310Z,5.32
2017-09-15T08:26:33.895Z,6.47
2017-09-15T08:29:01.477Z,6.07
2017-09-15T08:31:29.170Z,3.30
2017-09-15T08:33:57.526Z,4.70
2017-09-15T08:36:25.109Z,3.85
2017-09-15T08:38:52.966Z,3.20
2017-09-15T08:41:21.318Z,6.75
2017-09-15T08:43:48.935Z,6.90
2017-09-15T08:46:16.566Z,6.35
2017-09-15T08:48:44.957Z,7.68
2017-09-15T08:51:12.546Z,4.47
2017-09-15T08:53:40.134Z,8.43
2017-09-15T08:56:07.741Z,9.52
2017-09-15T08:58:35.325Z,6.68
2017-09-15T09:01:03.032Z,4.25
2017-09-15T09:03:31.390Z,3.95
2017-09-15T09:05:58.974Z,3.78
2017-09-15T09:08:27.429Z,8.13
2017-09-15T09:10:55.018Z,5.20
2017-09-15T09:13:22.606Z,3.83
2017-09-15T09:15:50.222Z,6.47
2017-09-15T09:18:18.574Z,3.08
2017-09-15T09:20:46.266Z,2.17
2017-09-15T09:23:14.730Z,2.70
2017-09-15T09:25:42.314Z,3.92
2017-09-15T09:28:09.964Z,3.87
2017-09-15T09:30:38.438Z,3.40
2017-09-15T09:33:06.814Z,2.40
2017-09-15T09:35:35.199Z,9.27
2017-09-15T09:38:03.602Z,6.50
2017-09-15T09:40:31.200Z,4.32
2017-09-15T09:42:58.895Z,4.63
2017-09-15T09:45:27.294Z,4.00
2017-09-15T09:47:54.931Z,1.65
2017-09-15T09:50:23.313Z,3.75
2017-09-15T09:52:50.925Z,3.35
2017-09-15T09:55:18.518Z,4.37
2017-09-15T09:57:46.862Z,3.60
2017-09-15T10:00:14.575Z,3.97
2017-09-15T10:02:42.166Z,3.93
2017-09-15T10:05:09.787Z,2.73
2017-09-15T10:07:38.174Z,3.33
2017-09-15T10:10:05.758Z,1.73
2017-09-15T10:12:33.385Z,2.73
2017-09-15T10:15:01.790Z,7.03
2017-09-15T10:17:29.413Z,2.70
2017-09-15T10:19:57.770Z,2.40
2017-09-15T10:22:25.667Z,7.00
2017-09-15T10:24:54.017Z,6.70
2017-09-15T10:27:21.590Z,3.67
2017-09-15T10:29:49.957Z,3.50
2017-09-15T10:32:17.539Z,2.97
2017-09-15T10:34:45.194Z,4.37
2017-09-15T10:37:13.538Z,3.40
2017-09-15T10:39:42.633Z,2.47
2017-09-15T10:42:10.322Z,3.63
2017-09-15T10:44:38.674Z,3.37
2017-09-15T10:47:06.324Z,4.07
2017-09-15T10:49:34.126Z,2.80
2017-09-15T10:52:02.475Z,2.93
2017-09-15T10:54:30.166Z,3.07
2017-09-15T10:56:58.575Z,4.00
2017-09-15T11:02:31.230Z,1.90
2017-09-15T11:04:59.582Z,2.70
2017-09-15T11:07:27.267Z,2.90
2017-09-15T11:09:55.851Z,1.73
2017-09-15T11:12:24.206Z,3.93
2017-09-15T11:14:51.890Z,2.50
2017-09-15T11:17:20.265Z,1.90
2017-09-15T11:19:48.614Z,2.80
2017-09-15T11:22:16.308Z,4.47
2017-09-15T11:24:44.756Z,2.10
2017-09-15T11:27:12.342Z,5.33
2017-09-15T11:29:40.717Z,2.03
2017-09-15T11:32:09.257Z,4.40
2017-09-15T11:34:36.859Z,11.43
2017-09-15T11:37:05.214Z,2.13
2017-09-15T11:39:32.819Z,3.97
2017-09-15T11:42:00.581Z,3.10
2017-09-15T11:44:28.166Z,3.93
2017-09-15T11:46:55.750Z,3.83
2017-09-15T11:49:24.158Z,2.93
2017-09-15T11:51:52.535Z,3.20
2017-09-15T11:54:20.891Z,2.57
2017-09-15T11:56:48.570Z,4.13
2017-09-15T11:59:16.919Z,2.33
2017-09-15T12:01:44.616Z,3.23
2017-09-15T12:04:13.034Z,1.70
2017-09-15T12:06:40.623Z,2.77
2017-09-15T12:09:08.219Z,2.30
2017-09-15T12:11:35.986Z,1.93
2017-09-15T12:14:03.568Z,2.53
2017-09-15T12:16:31.154Z,2.23
2017-09-15T12:18:58.954Z,2.40
2017-09-15T12:21:26.548Z,5.07
2017-09-15T12:23:54.134Z,3.50
2017-09-15T12:26:21.784Z,5.93
2017-09-15T12:28:49.413Z,1.67
2017-09-15T12:31:16.991Z,2.07
2017-09-15T12:33:44.574Z,3.47
2017-09-15T12:36:12.210Z,3.40
2017-09-15T12:38:39.794Z,4.13
2017-09-15T12:41:07.378Z,4.07
2017-09-15T12:43:35.767Z,4.27
2017-09-15T12:46:03.345Z,5.17
2017-09-15T12:48:30.921Z,2.97
2017-09-15T12:50:58.521Z,4.30
2017-09-15T12:53:26.102Z,3.47
2017-09-15T12:55:53.762Z,3.00
2017-09-15T12:58:22.110Z,5.83
2017-09-15T13:00:49.697Z,2.57
2017-09-15T13:03:17.337Z,2.80
2017-09-15T13:05:44.913Z,5.23
2017-09-15T13:08:13.271Z,3.20
2017-09-15T13:10:40.877Z,3.30
2017-09-15T13:13:08.458Z,2.47
2017-09-15T13:15:36.046Z,4.90
2017-09-15T13:18:04.634Z,2.00
2017-09-15T13:20:32.985Z,2.37
2017-09-15T13:23:00.573Z,3.20
2017-09-15T13:25:28.966Z,2.63
2017-09-15T13:27:56.546Z,9.37
2017-09-15T13:30:24.134Z,4.43
2017-09-15T13:32:51.762Z,6.30
2017-09-15T13:35:19.351Z,5.20
2017-09-15T13:37:46.929Z,3.77
2017-09-15T13:40:14.546Z,2.60
2017-09-15T13:42:42.127Z,9.50
2017-09-15T13:45:09.741Z,4.33
2017-09-15T13:47:37.328Z,3.53
2017-09-15T13:50:04.958Z,3.30
2017-09-15T13:52:32.537Z,4.00
2017-09-15T13:55:00.135Z,4.13
2017-09-15T13:57:27.872Z,1.90
2017-09-15T13:59:55.458Z,5.43
2017-09-15T14:02:23.042Z,6.20
2017-09-15T14:04:51.418Z,5.53
2017-09-15T14:07:19.812Z,5.90
2017-09-15T14:09:47.394Z,4.13
2017-09-15T14:12:14.983Z,7.67
2017-09-15T14:14:42.607Z,2.63
2017-09-15T14:17:10.190Z,2.33
2017-09-15T14:19:37.769Z,2.00
2017-09-15T14:22:05.376Z,6.00
2017-09-15T14:24:32.987Z,3.67
2017-09-15T14:27:00.561Z,4.13
2017-09-15T14:29:28.905Z,5.37
2017-09-15T14:31:56.514Z,4.93
2017-09-15T14:34:24.098Z,1.97
2017-09-15T14:36:51.734Z,1.93
2017-09-15T14:39:19.311Z,1.97
2017-09-15T14:41:46.905Z,2.33
2017-09-15T14:44:14.538Z,2.40
2017-09-15T14:46:42.117Z,1.83
2017-09-15T14:49:10.483Z,3.47
2017-09-15T14:51:38.099Z,3.57
2017-09-15T14:54:06.451Z,3.10
2017-09-15T14:56:34.085Z,4.70
2017-09-15T14:59:01.674Z,4.10
2017-09-15T15:01:30.026Z,3.80
2017-09-15T15:03:57.640Z,1.30
2017-09-15T15:06:25.279Z,2.97
2017-09-15T15:08:53.630Z,3.23
2017-09-15T15:11:21.214Z,1.53
2017-09-15T15:13:49.591Z,3.33
2017-09-15T15:16:17.937Z,1.70
2017-09-15T15:18:46.326Z,2.80
2017-09-15T15:21:13.918Z,1.53
2017-09-15T15:23:41.510Z,2.93
2017-09-15T15:26:09.329Z,1.57
2017-09-15T15:28:37.682Z,5.27
2017-09-15T15:31:05.270Z,10.00
2017-09-15T15:33:33.650Z,4.30
2017-09-15T15:36:02.027Z,2.40
2017-09-15T15:38:30.373Z,1.50
2017-09-15T15:40:57.987Z,4.23
2017-09-15T15:43:25.589Z,2.87
2017-09-15T15:45:53.169Z,3.20
2017-09-15T15:48:21.574Z,3.37
2017-09-15T15:50:49.162Z,3.20
2017-09-15T15:53:16.740Z,3.63
2017-09-15T15:55:44.346Z,1.70
2017-09-15T15:58:12.068Z,15.20
2017-09-15T16:00:39.649Z,3.00
2017-09-15T16:03:07.999Z,3.03
2017-09-15T16:05:35.638Z,1.47
2017-09-15T16:08:03.223Z,3.47
2017-09-15T16:10:30.805Z,1.43
2017-09-15T16:12:59.217Z,2.43
2017-09-15T16:15:26.797Z,3.93
2017-09-15T16:17:54.402Z,5.00
2017-09-15T16:20:22.777Z,3.43
2017-09-15T16:22:51.127Z,2.57
2017-09-15T16:25:18.714Z,2.23
2017-09-15T16:27:47.136Z,4.60
2017-09-15T16:30:14.720Z,2.97
2017-09-15T16:32:42.314Z,5.13
2017-09-15T16:35:10.698Z,6.40
2017-09-15T16:37:37.790Z,2.10
2017-09-15T16:40:11.259Z,3.63
2017-09-15T16:42:44.490Z,10.03
2017-09-15T16:45:17.941Z,3.90
2017-09-15T16:47:51.237Z,2.80
2017-09-15T16:50:18.863Z,3.50
2017-09-15T16:52:47.220Z,1.83
2017-09-15T16:55:14.822Z,2.90
2017-09-15T16:57:42.438Z,5.33
2017-09-15T17:00:10.030Z,6.07
2017-09-15T17:02:37.674Z,12.48
2017-09-15T17:05:06.030Z,5.80
2017-09-15T17:07:33.630Z,10.80
2017-09-15T17:10:01.250Z,13.77
2017-09-15T17:12:28.842Z,6.95
2017-09-15T17:14:56.488Z,3.42
2017-09-15T17:17:24.843Z,4.53
2017-09-15T17:19:52.484Z,3.65
2017-09-15T17:22:20.102Z,8.15
2017-09-15T17:24:47.696Z,5.65
2017-09-15T17:27:15.280Z,9.93
2017-09-15T17:29:42.899Z,6.80
2017-09-15T17:32:10.529Z,14.73
2017-09-15T17:34:38.886Z,18.67
2017-09-15T17:37:06.473Z,18.73
2017-09-15T17:39:34.114Z,29.45
2017-09-15T17:42:02.473Z,30.00
2017-09-15T17:44:30.058Z,7.18
2017-09-15T17:46:58.454Z,16.65
2017-09-15T17:49:26.034Z,10.90
2017-09-15T17:51:53.623Z,10.65
2017-09-15T17:54:21.255Z,8.75
2017-09-15T17:56:48.862Z,31.27
2017-09-15T17:59:17.226Z,11.90
2017-09-15T18:01:44.834Z,12.35
2017-09-15T18:04:12.465Z,16.37
2017-09-15T18:06:40.822Z,18.37
2017-09-15T18:09:08.415Z,15.93
2017-09-15T18:11:36.030Z,13.68
2017-09-15T18:14:03.622Z,12.60
2017-09-15T18:16:31.973Z,13.70
2017-09-15T18:18:59.689Z,11.70
2017-09-15T18:21:27.277Z,13.75
2017-09-15T18:23:55.634Z,12.98
2017-09-15T18:26:23.247Z,10.27
2017-09-15T18:28:51.601Z,10.68
2017-09-15T18:31:19.238Z,13.62
2017-09-15T18:33:46.827Z,8.43
2017-09-15T18:36:14.414Z,9.98
2017-09-15T18:38:42.797Z,13.45
2017-09-15T18:41:10.650Z,10.18
2017-09-15T18:43:40.960Z,8.43
2017-09-15T18:46:08.625Z,8.80
2017-09-15T18:48:37.022Z,8.65
2017-09-15T18:51:04.601Z,7.90
2017-09-15T18:53:32.197Z,8.90
2017-09-15T18:55:59.962Z,9.13
2017-09-15T18:58:27.562Z,6.12
2017-09-15T19:00:55.154Z,10.50
2017-09-15T19:03:22.974Z,7.20
2017-09-15T19:05:51.326Z,17.90
2017-09-15T19:08:18.911Z,12.75
2017-09-15T19:10:47.307Z,11.55
2017-09-15T19:13:14.889Z,11.63
2017-09-15T19:15:44.849Z,13.70
2017-09-15T19:20:45.895Z,13.62
2017-09-15T19:23:13.619Z,11.90
2017-09-15T19:25:41.203Z,14.55
2017-09-15T19:28:08.786Z,11.50
2017-09-15T19:30:36.426Z,9.18
2017-09-15T19:33:04.013Z,13.85
2017-09-15T19:38:04.349Z,18.50
2017-09-15T19:40:32.718Z,22.77
2017-09-15T19:43:00.301Z,68.78
2017-09-15T19:45:28.874Z,51.08
2017-09-15T19:47:57.226Z,73.28
2017-09-15T19:50:24.834Z,57.13
2017-09-15T19:52:52.451Z,59.65
2017-09-15T19:55:20.042Z,21.60
2017-09-15T19:57:47.894Z,20.70
2017-09-15T20:00:16.256Z,21.55
2017-09-15T20:02:43.837Z,18.75
2017-09-15T20:05:12.410Z,12.35
2017-09-15T20:07:40.761Z,17.52
2017-09-15T20:10:08.343Z,15.65
2017-09-15T20:12:36.730Z,10.07
2017-09-15T20:15:05.080Z,9.45
2017-09-15T20:17:32.673Z,18.42
2017-09-15T20:20:00.281Z,20.15
2017-09-15T20:22:27.873Z,12.55
2017-09-15T20:24:56.246Z,23.25
2017-09-15T20:27:24.597Z,14.55
2017-09-15T20:29:52.186Z,9.63
2017-09-15T20:32:20.602Z,11.85
2017-09-15T20:34:48.177Z,9.15
2017-09-15T20:37:15.767Z,12.98
2017-09-15T20:39:43.659Z,10.15
2017-09-15T20:42:11.242Z,13.77
2017-09-15T20:44:38.827Z,11.57
2017-09-15T20:47:06.458Z,14.02
2017-09-15T20:49:34.042Z,11.15
2017-09-15T20:52:01.622Z,9.65
2017-09-15T20:54:29.254Z,12.52
2017-09-15T20:56:57.612Z,14.90
2017-09-15T20:59:25.198Z,11.50
2017-09-15T21:01:52.818Z,14.18
2017-09-15T21:04:20.403Z,11.18
2017-09-15T21:06:47.993Z,8.55
2017-09-15T21:09:15.594Z,11.30
2017-09-15T21:11:43.192Z,10.10
2017-09-15T21:14:10.772Z,9.98
2017-09-15T21:16:38.529Z,10.77
2017-09-15T21:19:06.103Z,13.00
2017-09-15T21:21:33.678Z,11.85
2017-09-15T21:24:02.249Z,13.00
2017-09-15T21:26:30.598Z,11.68
2017-09-15T21:28:58.188Z,10.68
2017-09-15T21:31:26.589Z,12.90
2017-09-15T21:33:54.174Z,9.93
2017-09-15T21:36:21.754Z,7.12
2017-09-15T21:38:49.385Z,10.88
2017-09-15T21:41:16.966Z,10.88
2017-09-15T21:43:44.549Z,8.70
2017-09-15T21:46:12.169Z,5.65
2017-09-15T21:48:39.746Z,5.78
2017-09-15T21:51:07.327Z,8.38
2017-09-15T21:53:35.740Z,5.90
2017-09-15T21:56:03.326Z,9.10
2017-09-15T21:58:30.907Z,9.02
2017-09-15T22:00:58.501Z,7.30
2017-09-15T22:03:26.846Z,13.00
2017-09-15T22:05:54.418Z,7.00
2017-09-15T22:08:22.794Z,10.45
2017-09-15T22:10:50.378Z,10.15
2017-09-15T22:13:17.958Z,5.65
2017-09-15T22:15:45.563Z,6.05
2017-09-15T22:18:13.172Z,6.60
2017-09-15T22:20:40.847Z,7.62
2017-09-15T22:23:08.421Z,7.00
2017-09-15T22:25:36.053Z,5.00
2017-09-15T22:28:03.634Z,6.90
